createdAt,value
2019-02-24T00:01:28.004Z,-7.44
2019-02-24T00:03:59.332Z,-7.39
2019-02-24T00:06:30.712Z,-7.16
2019-02-24T00:09:02.114Z,-7.38
2019-02-24T00:11:35.019Z,-7.41
2019-02-24T00:14:06.270Z,-7.38
2019-02-24T00:16:37.713Z,-7.46
2019-02-24T00:19:09.150Z,-7.43
2019-02-24T00:21:40.618Z,-7.45
2019-02-24T00:24:11.859Z,-7.42
2019-02-24T00:26:43.299Z,-7.33
2019-02-24T00:29:14.678Z,-7.54
2019-02-24T00:31:45.992Z,-7.57
2019-02-24T00:34:17.447Z,-7.37
2019-02-24T00:36:48.911Z,-7.47
2019-02-24T00:39:20.577Z,-7.54
2019-02-24T00:41:52.005Z,-7.54
2019-02-24T00:44:23.393Z,-7.60
2019-02-24T00:46:54.714Z,-7.39
2019-02-24T00:49:26.053Z,-7.54
2019-02-24T00:51:57.427Z,-7.47
2019-02-24T00:54:28.778Z,-7.52
2019-02-24T00:57:00.099Z,-7.44
2019-02-24T00:59:31.406Z,-7.55
2019-02-24T01:02:02.842Z,-7.46
2019-02-24T01:04:34.336Z,-7.53
2019-02-24T01:07:06.813Z,-7.58
2019-02-24T01:09:38.138Z,-7.61
2019-02-24T01:12:09.474Z,-7.64
2019-02-24T01:14:41.993Z,-7.60
2019-02-24T01:17:13.440Z,-7.55
2019-02-24T01:19:44.881Z,-7.50
2019-02-24T01:22:16.355Z,-7.57
2019-02-24T01:24:47.776Z,-7.62
2019-02-24T01:27:19.225Z,-7.69
2019-02-24T01:29:50.710Z,-7.91
2019-02-24T01:32:22.152Z,-7.93
2019-02-24T01:34:53.611Z,-8.09
2019-02-24T01:37:25.055Z,-7.94
2019-02-24T01:39:56.487Z,-7.88
2019-02-24T01:42:27.819Z,-7.93
2019-02-24T01:44:59.295Z,-7.90
2019-02-24T01:47:30.651Z,-8.00
2019-02-24T01:50:02.131Z,-7.95
2019-02-24T01:52:33.609Z,-7.98
2019-02-24T01:55:04.991Z,-7.92
2019-02-24T01:57:36.471Z,-7.93
2019-02-24T02:00:10.215Z,-7.75
2019-02-24T02:02:41.870Z,-7.75
2019-02-24T02:05:13.247Z,-7.80
2019-02-24T02:07:44.586Z,-7.83
2019-02-24T02:10:15.853Z,-7.74
2019-02-24T02:12:47.288Z,-7.82
2019-02-24T02:15:18.690Z,-7.87
2019-02-24T02:17:50.015Z,-7.94
2019-02-24T02:20:21.457Z,-7.99
2019-02-24T02:22:54.008Z,-7.89
2019-02-24T02:25:25.340Z,-7.98
2019-02-24T02:27:56.689Z,-7.91
2019-02-24T02:30:28.059Z,-7.78
2019-02-24T02:32:59.510Z,-7.96
2019-02-24T02:35:30.752Z,-7.89
2019-02-24T02:38:02.106Z,-7.87
2019-02-24T02:40:33.468Z,-7.86
2019-02-24T02:43:04.810Z,-7.87
2019-02-24T02:45:36.082Z,-7.92
2019-02-24T02:48:07.485Z,-8.03
2019-02-24T02:50:38.855Z,-7.96
2019-02-24T02:53:10.347Z,-7.94
2019-02-24T02:55:41.755Z,-8.04
2019-02-24T02:58:13.207Z,-8.05
2019-02-24T03:00:44.560Z,-8.19
2019-02-24T03:03:15.989Z,-8.17
2019-02-24T03:05:48.903Z,-8.14
2019-02-24T03:08:21.793Z,-7.99
2019-02-24T03:10:53.218Z,-8.11
2019-02-24T03:13:24.613Z,-8.19
2019-02-24T03:15:55.947Z,-8.16
2019-02-24T03:18:27.291Z,-8.17
2019-02-24T03:20:58.793Z,-8.16
2019-02-24T03:23:30.141Z,-8.21
2019-02-24T03:26:01.607Z,-8.12
2019-02-24T03:28:34.034Z,-8.31
2019-02-24T03:31:05.438Z,-8.31
2019-02-24T03:33:36.815Z,-8.35
2019-02-24T03:36:08.430Z,-8.31
2019-02-24T03:38:39.915Z,-8.20
2019-02-24T03:41:11.494Z,-8.14
2019-02-24T03:43:42.990Z,-8.18
2019-02-24T03:46:14.496Z,-8.30
2019-02-24T03:48:45.942Z,-8.34
2019-02-24T03:51:17.320Z,-8.31
2019-02-24T03:53:48.895Z,-8.26
2019-02-24T03:56:20.346Z,-8.39
2019-02-24T03:58:51.783Z,-8.33
2019-02-24T04:01:23.376Z,-8.44
2019-02-24T04:03:54.739Z,-8.47
2019-02-24T04:06:26.054Z,-8.46
2019-02-24T04:08:57.468Z,-8.51
2019-02-24T04:11:28.810Z,-8.46
2019-02-24T04:14:00.290Z,-8.54
2019-02-24T04:16:31.857Z,-8.55
2019-02-24T04:19:03.238Z,-8.82
2019-02-24T04:21:34.867Z,-8.83
2019-02-24T04:24:06.283Z,-8.99
2019-02-24T04:26:37.667Z,-9.05
2019-02-24T04:29:09.091Z,-9.16
2019-02-24T04:31:40.562Z,-9.20
2019-02-24T04:34:11.997Z,-9.07
2019-02-24T04:36:43.446Z,-9.07
2019-02-24T04:39:14.934Z,-9.18
2019-02-24T04:41:46.265Z,-8.94
2019-02-24T04:44:17.584Z,-8.90
2019-02-24T04:46:49.058Z,-9.06
2019-02-24T04:49:20.497Z,-9.10
2019-02-24T04:51:51.983Z,-9.08
2019-02-24T04:54:22.899Z,-8.90
2019-02-24T04:56:54.011Z,-8.70
2019-02-24T04:59:34.612Z,-8.72
2019-02-24T05:01:58.529Z,-8.53
2019-02-24T05:04:29.947Z,-8.55
2019-02-24T05:07:01.474Z,-8.37
2019-02-24T05:09:33.899Z,-8.24
2019-02-24T05:12:05.392Z,-8.18
2019-02-24T05:14:36.825Z,-8.10
2019-02-24T05:17:08.206Z,-8.07
2019-02-24T05:19:39.629Z,-8.12
2019-02-24T05:22:11.091Z,-7.86
2019-02-24T05:24:42.532Z,-7.96
2019-02-24T05:27:13.983Z,-7.86
2019-02-24T05:29:46.568Z,-7.78
2019-02-24T05:32:17.948Z,-7.68
2019-02-24T05:34:49.361Z,-7.63
2019-02-24T05:37:20.849Z,-7.59
2019-02-24T05:39:52.200Z,-7.59
2019-02-24T05:42:23.596Z,-7.57
2019-02-24T05:44:55.095Z,-7.50
2019-02-24T05:47:26.501Z,-7.29
2019-02-24T05:49:57.965Z,-7.25
2019-02-24T05:52:29.296Z,-7.14
2019-02-24T05:55:00.743Z,-6.90
2019-02-24T05:57:32.073Z,-6.77
2019-02-24T06:00:03.753Z,-6.81
2019-02-24T06:02:36.335Z,-6.66
2019-02-24T06:05:09.286Z,-6.61
2019-02-24T06:07:40.762Z,-6.56
2019-02-24T06:10:12.159Z,-6.29
2019-02-24T06:12:43.495Z,-6.21
2019-02-24T06:15:14.917Z,-6.12
2019-02-24T06:17:46.372Z,-6.12
2019-02-24T06:20:17.814Z,-5.96
2019-02-24T06:22:49.274Z,-5.72
2019-02-24T06:25:20.731Z,-5.67
2019-02-24T06:27:52.069Z,-5.77
2019-02-24T06:30:23.507Z,-5.58
2019-02-24T06:32:54.949Z,-5.36
2019-02-24T06:35:26.365Z,-5.56
2019-02-24T06:37:57.782Z,-5.15
2019-02-24T06:40:29.157Z,-5.15
2019-02-24T06:43:00.667Z,-5.25
2019-02-24T06:45:31.985Z,-4.96
2019-02-24T06:48:03.364Z,-4.96
2019-02-24T06:50:51.772Z,-4.73
2019-02-24T06:53:23.118Z,-4.74
2019-02-24T06:55:54.586Z,-4.49
2019-02-24T06:58:25.919Z,-4.45
2019-02-24T07:00:57.259Z,-4.43
2019-02-24T07:03:29.780Z,-4.11
2019-02-24T07:06:01.234Z,-4.05
2019-02-24T07:08:32.605Z,-4.07
2019-02-24T07:11:04.094Z,-3.67
2019-02-24T07:13:35.595Z,-3.46
2019-02-24T07:16:07.009Z,-3.50
2019-02-24T07:18:38.318Z,-3.62
2019-02-24T07:21:09.714Z,-3.61
2019-02-24T07:23:41.159Z,-3.36
2019-02-24T07:26:12.490Z,-3.29
2019-02-24T07:28:43.830Z,-3.20
2019-02-24T07:31:15.323Z,-2.97
2019-02-24T07:33:46.765Z,-2.99
2019-02-24T07:36:18.102Z,-3.05
2019-02-24T07:38:49.559Z,-2.88
2019-02-24T07:41:21.010Z,-2.63
2019-02-24T07:43:52.323Z,-2.68
2019-02-24T07:46:23.649Z,-2.92
2019-02-24T07:48:55.067Z,-2.68
2019-02-24T07:51:26.553Z,-2.42
2019-02-24T07:53:57.901Z,-2.54
2019-02-24T07:56:29.440Z,-2.88
2019-02-24T07:59:00.768Z,-2.57
2019-02-24T08:01:32.159Z,-2.18
2019-02-24T08:04:03.539Z,-2.20
2019-02-24T08:06:35.014Z,-2.15
2019-02-24T08:09:06.464Z,-2.06
2019-02-24T08:11:37.952Z,-1.77
2019-02-24T08:14:09.400Z,-1.64
2019-02-24T08:16:40.904Z,-1.98
2019-02-24T08:19:12.310Z,-1.73
2019-02-24T08:21:43.817Z,-1.46
2019-02-24T08:24:15.268Z,-1.26
2019-02-24T08:26:46.720Z,-1.39
2019-02-24T08:29:18.167Z,-1.08
2019-02-24T08:31:49.539Z,-1.45
2019-02-24T08:34:20.921Z,-1.48
2019-02-24T08:36:52.425Z,-1.12
2019-02-24T08:39:23.881Z,-0.93
2019-02-24T08:41:55.315Z,-0.99
2019-02-24T08:44:26.867Z,-0.79
2019-02-24T08:46:58.610Z,-0.69
2019-02-24T08:49:30.179Z,-1.05
2019-02-24T08:52:01.619Z,-0.70
2019-02-24T08:54:32.981Z,-0.47
2019-02-24T08:57:04.317Z,-0.88
2019-02-24T08:59:35.752Z,-0.39
2019-02-24T09:02:07.206Z,-0.35
2019-02-24T09:19:59.696Z,-0.36
2019-02-24T09:22:31.035Z,-0.62
2019-02-24T09:25:03.361Z,-0.40
2019-02-24T09:27:35.091Z,-0.05
2019-02-24T09:30:13.663Z,0.25
2019-02-24T09:32:45.049Z,0.44
2019-02-24T09:35:16.459Z,0.57
2019-02-24T09:37:48.013Z,0.42
2019-02-24T09:40:19.369Z,0.45
2019-02-24T09:42:51.292Z,0.68
2019-02-24T09:45:22.692Z,0.54
2019-02-24T09:47:54.038Z,0.76
2019-02-24T09:50:25.471Z,0.50
2019-02-24T09:52:56.856Z,0.67
2019-02-24T09:55:28.180Z,0.87
2019-02-24T09:57:59.544Z,0.38
2019-02-24T10:00:30.991Z,1.06
2019-02-24T10:03:02.730Z,0.37
2019-02-24T10:05:34.079Z,1.08
2019-02-24T10:08:05.415Z,1.01
2019-02-24T21:21:35.456Z,-0.22
2019-02-24T21:26:55.166Z,-0.19
2019-02-24T21:29:28.910Z,-0.23
2019-02-24T21:32:00.240Z,-0.23
2019-02-24T21:34:31.682Z,-0.31
2019-02-24T21:37:03.145Z,-0.33
2019-02-24T21:39:34.499Z,-0.27
2019-02-24T21:42:06.065Z,-0.28
2019-02-24T21:44:37.391Z,-0.23
2019-02-24T21:47:08.755Z,-0.28
2019-02-24T21:49:40.165Z,-0.26
2019-02-24T21:52:11.687Z,-0.22
2019-02-24T21:54:43.036Z,-0.16
2019-02-24T21:57:14.349Z,-0.26
2019-02-24T21:59:45.667Z,-0.31
2019-02-24T22:02:17.129Z,-0.30
2019-02-24T22:04:48.497Z,-0.29
2019-02-24T22:07:19.918Z,-0.25
2019-02-24T22:09:51.459Z,-0.27
2019-02-24T22:12:22.709Z,-0.33
2019-02-24T22:14:54.168Z,-0.25
2019-02-24T22:17:25.710Z,-0.35
2019-02-24T22:19:57.056Z,-0.29
2019-02-24T22:22:28.525Z,-0.33
2019-02-24T22:24:59.963Z,-0.32
2019-02-24T22:27:31.423Z,-0.37
2019-02-24T22:30:02.868Z,-0.29
2019-02-24T22:32:34.416Z,-0.29
2019-02-24T22:35:06.796Z,-0.28
2019-02-24T22:37:38.231Z,-0.33
2019-02-24T22:40:11.801Z,-0.29
2019-02-24T22:42:44.202Z,-0.34
2019-02-24T22:45:17.360Z,-0.34
2019-02-24T22:47:48.856Z,-0.26
2019-02-24T22:50:20.219Z,-0.35
2019-02-24T22:52:51.552Z,-0.32
2019-02-24T22:55:23.001Z,-0.33
2019-02-24T22:57:54.432Z,-0.39
2019-02-24T23:00:54.571Z,-0.41
2019-02-24T23:03:30.240Z,-0.45
2019-02-24T23:06:02.982Z,-0.38
2019-02-24T23:08:34.350Z,-0.42
2019-02-24T23:11:05.800Z,-0.32
2019-02-24T23:13:39.269Z,-0.23
2019-02-24T23:16:10.341Z,-0.37
2019-02-24T23:18:41.796Z,-0.31
2019-02-24T23:21:13.201Z,-0.40
2019-02-24T23:23:44.592Z,-0.32
2019-02-24T23:26:15.902Z,-0.42
2019-02-24T23:28:47.246Z,-0.45
2019-02-24T23:31:18.731Z,-0.34
2019-02-24T23:33:50.005Z,-0.32
2019-02-24T23:36:21.447Z,-0.46
2019-02-24T23:38:53.507Z,-0.43
2019-02-24T23:41:24.847Z,-0.39
2019-02-24T23:43:56.281Z,-0.41
2019-02-24T23:46:27.653Z,-0.49
2019-02-24T23:48:59.158Z,-0.45
2019-02-24T23:51:30.671Z,-0.45
2019-02-24T23:54:02.001Z,-0.45
2019-02-24T23:56:33.488Z,-0.49
2019-02-24T23:59:04.830Z,-0.48
